Time;durP1;ratioP1;P1;durP2;ratioP2;P2;SDS_P1;SDS_P2;PMS_P1;PMS_P2;Temp;Humidity;BMP_temperature;BMP_pressure;BME280_temperature;BME280_humidity;BME280_pressure;Samples;Min_cycle;Max_cycle;Signal;HPM_P1;HPM_P2
2021/10/16 00:14:23;;;;;;;16.28;6.55;;;;;;;9.15;100.00;100201.16;713026;1179;114169;-76
2021/10/16 00:29:25;;;;;;;19.45;6.05;;;;;;;8.91;100.00;100219.73;713106;1206;114793;-77
2021/10/16 00:44:28;;;;;;;12.87;5.13;;;;;;;8.77;100.00;100226.08;713349;1202;114333;-77
2021/10/16 00:59:31;;;;;;;48.20;18.28;;;;;;;8.70;100.00;100231.92;713308;1203;115120;-76
2021/10/16 01:14:33;;;;;;;102.00;38.17;;;;;;;8.76;100.00;100247.13;713063;1203;115276;-77
2021/10/16 01:29:36;;;;;;;88.43;40.77;;;;;;;8.92;100.00;100241.47;713183;1206;115763;-77
2021/10/16 01:44:40;;;;;;;12.25;6.90;;;;;;;9.03;100.00;100262.38;713033;1182;115242;-76
2021/10/16 01:59:43;;;;;;;16.43;5.93;;;;;;;9.11;100.00;100265.19;713239;1202;115085;-74
2021/10/16 02:14:46;;;;;;;17.48;5.98;;;;;;;9.06;100.00;100280.42;712987;1202;114326;-73
2021/10/16 02:29:48;;;;;;;10.10;6.10;;;;;;;8.93;100.00;100298.08;713231;1202;115098;-74
2021/10/16 02:44:50;;;;;;;22.30;8.48;;;;;;;8.85;100.00;100305.73;712927;1203;113055;-74
2021/10/16 02:59:52;;;;;;;14.93;6.55;;;;;;;8.68;100.00;100294.81;712789;1202;113778;-73
2021/10/16 03:14:55;;;;;;;16.45;6.50;;;;;;;8.61;100.00;100325.86;712739;1202;114454;-74
2021/10/16 03:29:57;;;;;;;16.35;5.50;;;;;;;8.66;100.00;100338.59;712351;1206;114483;-74
2021/10/16 03:45:01;;;;;;;15.60;6.35;;;;;;;8.60;100.00;100362.59;712524;1206;113847;-74
2021/10/16 04:00:04;;;;;;;14.50;5.00;;;;;;;8.62;100.00;100364.14;712316;1178;113994;-74
2021/10/16 04:15:08;;;;;;;14.50;6.47;;;;;;;8.68;100.00;100367.23;712558;1202;115204;-73
2021/10/16 04:30:10;;;;;;;14.67;7.00;;;;;;;8.67;100.00;100371.64;712640;1202;115030;-73
2021/10/16 04:45:13;;;;;;;16.63;6.17;;;;;;;8.67;100.00;100382.10;713129;1201;114637;-75
2021/10/16 05:00:15;;;;;;;25.55;7.20;;;;;;;8.64;100.00;100393.63;713244;1202;115537;-74
2021/10/16 05:15:18;;;;;;;16.38;7.10;;;;;;;8.64;100.00;100398.86;713315;1206;114025;-73
2021/10/16 05:30:21;;;;;;;13.63;6.57;;;;;;;8.48;100.00;100425.34;712983;1203;113850;-78
2021/10/16 05:45:24;;;;;;;43.10;20.05;;;;;;;8.45;100.00;100443.89;713173;1203;113394;-75
2021/10/16 06:00:26;;;;;;;20.30;11.07;;;;;;;8.47;100.00;100464.69;712915;1179;114130;-75
2021/10/16 06:15:29;;;;;;;17.70;6.97;;;;;;;8.40;100.00;100471.31;714406;1203;115482;-79
2021/10/16 06:30:31;;;;;;;16.17;8.87;;;;;;;8.43;100.00;100481.53;713491;1202;115596;-74
2021/10/16 06:45:34;;;;;;;17.65;7.30;;;;;;;8.42;100.00;100482.47;714397;1203;113865;-85
2021/10/16 07:00:37;;;;;;;13.20;7.60;;;;;;;8.60;100.00;100495.97;715471;1203;113860;-85
2021/10/16 07:15:39;;;;;;;18.60;7.40;;;;;;;8.89;100.00;100511.20;713939;1202;115659;-82
2021/10/16 07:30:41;;;;;;;20.97;10.17;;;;;;;9.49;100.00;100527.46;713473;1177;114284;-76
2021/10/16 07:45:43;;;;;;;17.30;6.95;;;;;;;9.78;100.00;100548.69;713471;1192;114076;-84
2021/10/16 08:00:49;;;;;;;28.75;13.05;;;;;;;10.12;100.00;100577.41;717307;1202;113908;-84
2021/10/16 08:15:53;;;;;;;26.43;12.20;;;;;;;9.98;100.00;100589.00;716415;1202;114266;-85
2021/10/16 08:30:58;;;;;;;14.10;6.10;;;;;;;10.18;100.00;100593.61;715956;1203;115333;-85
2021/10/16 08:46:02;;;;;;;64.33;37.00;;;;;;;10.13;100.00;100626.24;716250;1203;114810;-86
2021/10/16 09:01:05;;;;;;;23.93;11.07;;;;;;;11.40;100.00;100618.42;716133;1202;114283;-81
2021/10/16 09:16:20;;;;;;;17.47;6.77;;;;;;;10.46;100.00;100645.47;713390;1183;115016;-80
2021/10/16 09:31:22;;;;;;;21.28;8.53;;;;;;;10.45;100.00;100659.56;713360;1203;115110;-81
2021/10/16 09:46:24;;;;;;;21.70;8.95;;;;;;;10.47;100.00;100675.98;713244;1202;115797;-80
2021/10/16 10:01:29;;;;;;;15.98;8.73;;;;;;;10.59;100.00;100675.95;713156;1203;115210;-79
2021/10/16 10:16:33;;;;;;;22.35;9.55;;;;;;;10.82;100.00;100671.42;713385;1206;114670;-76
2021/10/16 10:31:45;;;;;;;15.17;6.03;;;;;;;11.65;100.00;100669.67;713336;1202;114503;-75
2021/10/16 10:46:48;;;;;;;;;;;;;;;12.98;100.00;100654.42;713051;1207;114797;-75
2021/10/16 11:02:08;;;;;;;49.65;16.90;;;;;;;13.48;100.00;100654.15;713283;1202;101393;-75
2021/10/16 11:17:15;;;;;;;27.65;9.55;;;;;;;13.96;100.00;100657.53;713125;1202;114611;-77
2021/10/16 11:32:19;;;;;;;23.35;10.20;;;;;;;14.10;92.97;100648.27;713515;1202;114788;-80
2021/10/16 11:47:21;;;;;;;33.60;15.60;;;;;;;13.11;92.67;100654.94;713500;1196;114787;-77
2021/10/16 12:02:36;;;;;;;46.70;17.70;;;;;;;12.71;95.20;100647.25;713474;1202;115363;-73
2021/10/16 12:17:43;;;;;;;51.50;23.80;;;;;;;14.70;92.32;100644.22;716689;1169;114806;-75
2021/10/16 12:33:12;;;;;;;51.20;21.70;;;;;;;14.04;86.18;100642.77;713115;1208;115158;-75
2021/10/16 12:48:21;;;;;;;41.08;17.45;;;;;;;12.87;87.75;100642.26;713597;1205;114977;-78
2021/10/16 13:03:23;;;;;;;15.47;7.77;;;;;;;12.36;88.89;100646.03;714588;1203;115029;-75
2021/10/16 13:18:27;;;;;;;17.80;6.95;;;;;;;12.26;89.72;100648.64;719171;1206;114053;-75
2021/10/16 13:33:29;;;;;;;43.20;15.93;;;;;;;13.10;91.00;100639.28;713140;1203;114125;-74
2021/10/16 13:48:32;;;;;;;22.43;10.18;;;;;;;12.34;90.73;100669.00;713443;1203;115976;-75
2021/10/16 14:03:35;;;;;;;77.15;28.83;;;;;;;12.13;92.11;100646.30;713447;1203;114662;-75
2021/10/16 14:18:37;;;;;;;48.40;22.15;;;;;;;12.00;92.24;100657.06;713525;1180;114212;-80
2021/10/16 14:33:40;;;;;;;39.05;18.30;;;;;;;11.93;93.44;100666.41;713754;1206;114799;-82
2021/10/16 14:48:42;;;;;;;36.93;17.60;;;;;;;11.92;94.23;100670.84;713383;1206;114295;-79
2021/10/16 15:03:45;;;;;;;26.80;10.53;;;;;;;11.73;94.36;100679.52;713265;1203;115646;-79
2021/10/16 15:18:47;;;;;;;43.97;15.90;;;;;;;11.43;93.53;100683.00;712870;1185;114879;-79
2021/10/16 15:33:50;;;;;;;107.95;41.20;;;;;;;11.34;92.56;100681.98;713028;1203;115882;-81
2021/10/16 15:48:53;;;;;;;34.90;15.47;;;;;;;11.22;92.24;100688.28;713054;1203;115745;-79
2021/10/16 16:03:56;;;;;;;78.35;28.23;;;;;;;11.03;91.97;100695.05;712636;1204;115756;-79
2021/10/16 16:18:59;;;;;;;53.45;21.95;;;;;;;10.98;92.50;100702.50;713089;1181;116038;-79
2021/10/16 16:34:01;;;;;;;54.57;37.17;;;;;;;10.87;92.84;100711.23;713538;1203;113840;-71
2021/10/16 16:49:04;;;;;;;23.35;10.80;;;;;;;10.77;93.64;100724.30;714349;1203;115472;-72
2021/10/16 17:04:06;;;;;;;40.60;13.65;;;;;;;10.71;93.45;100714.30;713067;1197;115494;-72
2021/10/16 17:19:16;;;;;;;43.60;13.77;;;;;;;10.58;93.85;100711.02;712976;1205;114335;-73
2021/10/16 17:34:19;;;;;;;45.15;14.45;;;;;;;10.44;93.74;100718.22;713388;1180;114582;-71
2021/10/16 17:49:23;;;;;;;24.10;9.20;;;;;;;10.11;94.25;100711.23;713543;1203;116941;-71
2021/10/16 18:04:26;;;;;;;30.83;14.43;;;;;;;9.71;95.22;100720.41;714059;1180;114001;-88
2021/10/16 18:19:29;;;;;;;32.80;14.55;;;;;;;9.32;95.00;100728.59;713920;1205;114011;-73
2021/10/16 18:34:31;;;;;;;50.20;19.05;;;;;;;8.90;97.36;100730.04;713248;1206;115412;-73
2021/10/16 18:49:34;;;;;;;45.10;19.40;;;;;;;8.77;98.13;100725.69;713195;1203;115847;-73
2021/10/16 19:04:36;;;;;;;36.00;15.50;;;;;;;8.64;100.00;100732.77;712765;1181;113841;-71
2021/10/16 19:19:38;;;;;;;41.35;16.10;;;;;;;8.72;100.00;100738.27;713043;1188;115143;-72
2021/10/16 19:34:41;;;;;;;32.53;14.43;;;;;;;8.77;100.00;100746.63;713211;1203;114336;-71
2021/10/16 19:49:44;;;;;;;18.95;8.75;;;;;;;8.74;100.00;100733.78;713133;1203;115019;-71
2021/10/16 20:04:47;;;;;;;17.65;6.95;;;;;;;8.78;100.00;100734.39;713194;1208;114330;-72
2021/10/16 20:19:49;;;;;;;20.53;8.17;;;;;;;8.89;100.00;100728.37;713632;1208;113974;-74
2021/10/16 20:34:52;;;;;;;15.65;6.50;;;;;;;8.86;100.00;100723.38;713775;1203;115785;-74
2021/10/16 20:49:55;;;;;;;15.67;6.73;;;;;;;8.77;100.00;100727.48;713491;1203;115254;-75
2021/10/16 21:04:57;;;;;;;16.33;6.83;;;;;;;8.69;100.00;100725.42;715268;1203;114125;-74
2021/10/16 21:19:59;;;;;;;16.03;6.58;;;;;;;8.52;100.00;100713.58;716228;1202;114592;-73
2021/10/16 21:35:01;;;;;;;21.90;9.90;;;;;;;8.54;100.00;100732.62;715476;1203;114153;-72
2021/10/16 21:50:09;;;;;;;16.18;7.10;;;;;;;8.62;100.00;100730.27;713987;1180;114868;-74
2021/10/16 22:05:11;;;;;;;20.90;6.48;;;;;;;8.49;100.00;100735.55;712867;1181;113414;-73
2021/10/16 22:20:14;;;;;;;17.37;7.57;;;;;;;8.41;100.00;100727.41;713235;1203;115531;-73
2021/10/16 22:35:19;;;;;;;19.75;6.08;;;;;;;8.46;100.00;100729.73;713418;1206;114748;-73
2021/10/16 22:50:22;;;;;;;11.15;5.33;;;;;;;8.55;100.00;100730.83;713082;1205;114551;-74
2021/10/16 23:05:25;;;;;;;10.43;5.40;;;;;;;8.63;100.00;100737.19;713459;1203;115099;-73
2021/10/16 23:20:27;;;;;;;12.85;5.50;;;;;;;8.69;100.00;100725.42;713801;1180;113953;-72
2021/10/16 23:35:34;;;;;;;19.25;6.00;;;;;;;8.67;100.00;100719.49;713473;1205;114633;-72
2021/10/16 23:50:37;;;;;;;9.95;5.10;;;;;;;8.63;100.00;100725.87;713838;1203;114711;-72
